• Join FlightAware (Why Join?)
  • Login
  • US Flag 
01:44AM EST


 

Airport Tracker/Info


-or-


 

Live Flight TrackerFlight Track Log ✈ N5601T ✈ 01-May-2013 ✈ KMCO - KOTM

Flight Track Log - Related Links

Times and Time Zones

All times are in EDT time to prevent confusion due to time zone crossing. See the N5601T flight status page for this flight to view local times or setup timezone preferences in your user account.

Time Position Orientation Groundspeed Altitude Reporting Facility
EDT Latitude Longitude Course Direction KTS MPH feet Rate Location/Type
10:35AM 28.4500 -81.3333 16° North 201 231 1,000  Level Orlando TRACON
10:36AM 28.5000 -81.3167 16° North 260 299 4,000 3,840 Climbing Orlando TRACON
10:37AM 28.5833 -81.3167 360° North 295 339 8,400 4,080 Climbing Orlando TRACON
10:38AM 28.6167 -81.4000 295° West 294 338 12,300 3,420 Climbing Orlando TRACON
10:39AM 28.5936 -81.5567 261° West 296 341 18,300 3,180 Climbing Jacksonville Center
10:40AM 28.5717 -81.6375 253° West 278 320 21,400 2,940 Climbing Jacksonville Center
10:41AM 28.5514 -81.7156 254° West 268 308 24,200 2,280 Climbing Jacksonville Center
10:42AM 28.5333 -81.7939 255° West 263 303 26,000 900 Climbing Jacksonville Center
10:43AM 28.5092 -81.8908 254° West 289 333 26,000 1,500 Level Jacksonville Center
10:44AM 28.4786 -81.9975 252° West 330 380 29,100 3,000 Climbing Jacksonville Center
10:45AM 28.4561 -82.0803 253° West 318 366 32,000 1,440 Climbing Jacksonville Center
10:46AM 28.4858 -82.1581 294° West 267 307 32,000  Level Jacksonville Center
10:47AM 28.5781 -82.2189 330° Northwest 296 341 32,000 840 Level Jacksonville Center
10:48AM 28.6639 -82.2822 327° Northwest 336 387 33,700 960 Climbing Jacksonville Center
10:49AM 28.7603 -82.3267 338° Northwest 348 400 34,000 300 Climbing Jacksonville Center
10:50AM 28.8689 -82.3567 346° North 376 433 34,400 960 Climbing Jacksonville Center
10:51AM 28.9733 -82.3847 347° North 383 441 36,000 840 Climbing Jacksonville Center
10:52AM 29.0797 -82.4125 347° North 383 441 36,100 600 Climbing Jacksonville Center
10:53AM 29.1967 -82.4192 357° North 402 463 37,200 900 Climbing Jacksonville Center
10:54AM 29.3136 -82.4211 359° North 407 468 38,000 360 Climbing Jacksonville Center
10:55AM 29.4306 -82.4253 358° North 407 468 38,000  Level Jacksonville Center
10:56AM 29.5311 -82.4819 334° Northwest 403 464 38,000  Level Jacksonville Center
10:57AM 29.6378 -82.5628 327° Northwest 403 464 38,000  Level Jacksonville Center
10:58AM 29.7339 -82.6319 328° Northwest 414 476 38,000  Level Jacksonville Center
10:59AM 29.8322 -82.7106 325° Northwest 426 490 38,000  Level Jacksonville Center
11:00AM 29.9303 -82.7822 328° Northwest 421 484 38,000  Level Jacksonville Center
11:01AM 30.0328 -82.8494 330° Northwest 421 484 38,000  Level Jacksonville Center
11:02AM 30.1328 -82.9261 326° Northwest 421 484 38,000  Level Jacksonville Center
11:03AM 30.2311 -83.0008 327° Northwest 421 484 38,000  Level Jacksonville Center
11:04AM 30.3333 -83.0756 328° Northwest 421 484 38,000  Level Jacksonville Center
11:05AM 30.4311 -83.1481 327° Northwest 421 484 38,000  Level Jacksonville Center
11:06AM 30.5333 -83.2256 327° Northwest 421 484 38,000  Level Jacksonville Center
11:07AM 30.6356 -83.2983 329° Northwest 426 490 38,000  Level Jacksonville Center
11:08AM 30.7375 -83.3758 327° Northwest 431 496 38,000  Level Jacksonville Center
11:09AM 30.8186 -83.4369 327° Northwest 431 496 38,000  Level Jacksonville Center
11:10AM 30.9269 -83.5197 327° Northwest 431 496 38,000  Level Jacksonville Center
11:11AM 31.0267 -83.5956 327° Northwest 431 496 38,000  Level Jacksonville Center
11:12AM 31.1306 -83.6742 327° Northwest 437 503 38,000  Level Jacksonville Center
11:14AM 31.2936 -83.8008 326° Northwest 436 502 38,000  Level Atlanta Center
11:15AM 31.3981 -83.8783 328° Northwest 436 502 38,000  Level Atlanta Center
11:16AM 31.5003 -83.9586 326° Northwest 441 507 38,000  Level Atlanta Center
11:17AM 31.6047 -84.0389 327° Northwest 441 507 38,000  Level Atlanta Center
11:18AM 31.7089 -84.1144 328° Northwest 441 507 38,000  Level Atlanta Center
11:19AM 31.8133 -84.1953 327° Northwest 441 507 38,000  Level Atlanta Center
11:20AM 31.9258 -84.2811 327° Northwest 441 507 38,000  Level Atlanta Center
11:21AM 32.0281 -84.3622 326° Northwest 441 507 38,000  Level Atlanta Center
11:22AM 32.1300 -84.4386 328° Northwest 441 507 38,000 300 Level Atlanta Center
11:23AM 32.2300 -84.5175 326° Northwest 441 507 38,600 960 Climbing Atlanta Center
11:24AM 32.3214 -84.5894 326° Northwest 425 489 40,000 660 Climbing Atlanta Center
11:25AM 32.4172 -84.6664 326° Northwest 416 479 40,000  Level Atlanta Center
11:26AM 32.5147 -84.7383 328° Northwest 416 479 40,000  Level Atlanta Center
11:27AM 32.6125 -84.8181 326° Northwest 421 484 40,000  Level Atlanta Center
11:28AM 32.7164 -84.8906 330° Northwest 421 484 40,000  Level Atlanta Center
11:29AM 32.8158 -84.9756 324° Northwest 427 491 40,000  Level Atlanta Center
11:30AM 32.9133 -85.0533 326° Northwest 434 499 40,000  Level Atlanta Center
11:31AM 33.0025 -85.1261 326° Northwest 434 499 40,000  Level Atlanta Center
11:32AM 33.0978 -85.2017 326° Northwest 417 480 40,000  Level Atlanta Center
11:33AM 33.1953 -85.2775 327° Northwest 417 480 40,000  Level Atlanta Center
11:34AM 33.2906 -85.3558 326° Northwest 417 480 40,000  Level Atlanta Center
11:35AM 33.3792 -85.4419 321° Northwest 408 470 40,000  Level Atlanta Center
11:36AM 33.4847 -85.5233 327° Northwest 408 470 40,000  Level Atlanta Center
11:37AM 33.5819 -85.6022 326° Northwest 413 475 40,000  Level Atlanta Center
11:38AM 33.6789 -85.6839 325° Northwest 421 484 40,000  Level Atlanta Center
11:39AM 33.7758 -85.7608 327° Northwest 427 491 40,000  Level Atlanta Center
11:40AM 33.8731 -85.8328 328° Northwest 416 479 40,000  Level Atlanta Center
11:41AM 33.9700 -85.9125 326° Northwest 416 479 40,000  Level Atlanta Center
11:42AM 34.0689 -85.9897 327° Northwest 421 484 40,000  Level Atlanta Center
11:43AM 34.1658 -86.0697 326° Northwest 421 484 40,000  Level Atlanta Center
11:44AM 34.2625 -86.1525 325° Northwest 421 484 40,000  Level Atlanta Center
11:45AM 34.3633 -86.2331 327° Northwest 421 484 40,000  Level Atlanta Center
11:46AM 34.4600 -86.3111 326° Northwest 421 484 40,000  Level Atlanta Center
11:47AM 34.5586 -86.3944 325° Northwest 421 484 40,000  Level Atlanta Center
11:48AM 34.6550 -86.4756 325° Northwest 421 484 40,000  Level Atlanta Center
11:49AM 34.7517 -86.5542 326° Northwest 421 484 40,000  Level Atlanta Center
11:50AM 34.8481 -86.6356 325° Northwest 421 484 40,000  Level Atlanta Center
11:51AM 34.9464 -86.7172 326° Northwest 421 484 40,000  Level Atlanta Center
11:52AM 35.0406 -86.7964 325° Northwest 421 484 40,000  Level Atlanta Center
11:52AM 35.0781 -86.8300 324° Northwest 422 486 40,000  Level Memphis Center
11:53AM 35.1744 -86.9125 325° Northwest 422 486 40,000  Level Memphis Center
11:54AM 35.2703 -86.9925 326° Northwest 422 486 40,000  Level Memphis Center
11:55AM 35.3642 -87.0725 325° Northwest 422 486 40,000  Level Memphis Center
11:56AM 35.4669 -87.1656 324° Northwest 417 480 40,000  Level Memphis Center
11:57AM 35.5522 -87.2386 325° Northwest 417 480 40,000  Level Memphis Center
11:58AM 35.6500 -87.3219 325° Northwest 417 480 40,000  Level Memphis Center
11:59AM 35.7458 -87.4028 326° Northwest 417 480 40,000  Level Memphis Center
12:00PM 35.8439 -87.4864 325° Northwest 422 486 40,000  Level Memphis Center
12:01PM 35.9417 -87.5700 325° Northwest 422 486 40,000  Level Memphis Center
12:02PM 36.0458 -87.6614 325° Northwest 422 486 40,000  Level Memphis Center
12:03PM 36.1436 -87.7456 325° Northwest 422 486 40,000  Level Memphis Center
12:04PM 36.2392 -87.8275 325° Northwest 422 486 40,000  Level Memphis Center
12:05PM 36.3367 -87.9119 325° Northwest 428 493 40,000  Level Memphis Center
12:06PM 36.4342 -87.9969 325° Northwest 428 493 40,000  Level Memphis Center
12:07PM 36.5294 -88.0792 325° Northwest 428 493 40,000  Level Memphis Center
12:08PM 36.6269 -88.1619 326° Northwest 428 493 40,000  Level Memphis Center
12:09PM 36.7222 -88.2472 324° Northwest 428 493 40,000  Level Memphis Center
12:10PM 36.8194 -88.3328 325° Northwest 428 493 40,000  Level Memphis Center
12:11PM 36.9125 -88.4161 324° Northwest 428 493 40,000  Level Memphis Center
12:12PM 37.0097 -88.5019 325° Northwest 428 493 40,000  Level Memphis Center
12:13PM 37.1047 -88.5933 323° Northwest 428 493 40,000  Level Memphis Center
12:15PM 37.2767 -88.7461 325° Northwest 428 493 40,000  Level Kansas City Center
12:16PM 37.3931 -88.8506 325° Northwest 429 494 40,000  Level Kansas City Center
12:17PM 37.4908 -88.9383 325° Northwest 431 496 40,000  Level Kansas City Center
12:19PM 37.5856 -89.0272 323° Northwest 428 493 40,000  Level Kansas City Center
12:20PM 37.6817 -89.1158 324° Northwest 428 493 40,000  Level Kansas City Center
12:21PM 37.7783 -89.2025 325° Northwest 426 490 40,000  Level Kansas City Center
12:22PM 37.8786 -89.2972 323° Northwest 428 493 40,000  Level Kansas City Center
12:23PM 37.9756 -89.3850 324° Northwest 430 495 40,000  Level Kansas City Center
12:24PM 38.0725 -89.4742 324° Northwest 431 496 40,000  Level Kansas City Center
12:25PM 38.1883 -89.5828 324° Northwest 433 498 40,000  Level Kansas City Center
12:26PM 38.2856 -89.6728 324° Northwest 432 497 40,000  Level Kansas City Center
12:27PM 38.3814 -89.7619 324° Northwest 430 495 40,000  Level Kansas City Center
12:28PM 38.4794 -89.8508 325° Northwest 432 497 40,000  Level Kansas City Center
12:29PM 38.5750 -89.9411 324° Northwest 431 496 40,000  Level Kansas City Center
12:30PM 38.6889 -90.0494 323° Northwest 429 494 40,000  Level Kansas City Center
12:31PM 38.7853 -90.1411 323° Northwest 430 495 40,000  Level Kansas City Center
12:32PM 38.8817 -90.2325 324° Northwest 430 495 40,000  Level Kansas City Center
12:33PM 38.9714 -90.3197 323° Northwest 429 494 40,000  Level Kansas City Center
12:34PM 39.0656 -90.4103 323° Northwest 428 493 40,000  Level Kansas City Center
12:35PM 39.1800 -90.5211 323° Northwest 430 495 40,000 -840 Level Kansas City Center
12:36PM 39.2747 -90.6128 323° Northwest 430 495 38,300 -1,740 Descending Kansas City Center
12:37PM 39.3719 -90.7069 323° Northwest 435 501 36,500 -1,860 Descending Kansas City Center
12:38PM 39.4686 -90.8017 323° Northwest 436 502 34,500 -1,980 Descending Kansas City Center
12:39PM 39.5664 -90.8958 323° Northwest 440 506 32,500 -1,260 Descending Kansas City Center
12:40PM 39.6819 -91.0106 323° Northwest 438 504 32,000 -420 Descending Kansas City Center
12:41PM 39.7689 -91.0969 323° Northwest 440 506 31,700 -1,080 Descending Kansas City Center
12:42PM 39.8694 -91.1950 323° Northwest 449 517 29,800 -2,040 Descending Kansas City Center
12:43PM 39.9897 -91.3139 323° Northwest 456 525 27,500 -2,100 Descending Kansas City Center
12:44PM 40.0864 -91.4111 322° Northwest 448 516 25,500 -1,920 Descending Kansas City Center
12:45PM 40.1794 -91.5031 323° Northwest 434 499 23,600 -1,920 Descending Kansas City Center
12:46PM 40.2694 -91.5928 323° Northwest 419 482 21,600 -1,980 Descending Kansas City Center
12:47PM 40.3719 -91.6964 322° Northwest 399 459 19,600 -1,920 Descending Kansas City Center
12:49PM 40.4544 -91.7792 323° Northwest 385 443 17,700 -1,800 Descending Kansas City Center
12:50PM 40.5347 -91.8608 322° Northwest 375 432 16,000 -1,740 Descending Kansas City Center
12:51PM 40.6136 -91.9417 322° Northwest 368 423 14,200 -1,860 Descending Kansas City Center
12:51PM 40.6614 -91.9900 323° Northwest 364 419 13,100 -1,920 Descending Chicago Center
12:52PM 40.7389 -92.0686 322° Northwest 360 414 11,200 -1,800 Descending Chicago Center
12:53PM 40.8125 -92.1450 322° Northwest 345 397 9,400 -1,980 Descending Chicago Center
12:54PM 40.8867 -92.2203 323° Northwest 293 337 7,200 -2,160 Descending Chicago Center